Time;durP1;ratioP1;P1;durP2;ratioP2;P2;SDS_P1;SDS_P2;PMS_P1;PMS_P2;Temp;Humidity;BMP_temperature;BMP_pressure;BME280_temperature;BME280_humidity;BME280_pressure;Samples;Min_cycle;Max_cycle;Signal;HPM_P1;HPM_P2
2023/08/04 00:02:01;;;;;;;12.07;3.22;;;;;;;17.55;66.75;100970.81;5144823;27;20039;-68
2023/08/04 00:04:28;;;;;;;10.93;3.30;;;;;;;17.55;66.74;100967.28;5140572;27;20452;-68
2023/08/04 00:06:56;;;;;;;7.65;2.85;;;;;;;17.55;66.66;100964.56;5141475;27;20095;-67
2023/08/04 00:09:24;;;;;;;13.30;3.50;;;;;;;17.54;66.81;100962.91;5143137;27;20050;-68
2023/08/04 00:11:52;;;;;;;8.60;3.42;;;;;;;17.53;66.69;100972.16;5142422;27;20046;-69
2023/08/04 00:14:20;;;;;;;8.88;3.45;;;;;;;17.53;66.76;100975.69;5146373;27;20103;-68
2023/08/04 00:16:49;;;;;;;7.15;3.42;;;;;;;17.53;66.53;100980.31;5144373;27;20050;-68
2023/08/04 00:19:17;;;;;;;10.90;3.42;;;;;;;17.53;66.57;100983.03;5146495;27;20039;-68
2023/08/04 00:21:44;;;;;;;7.28;3.05;;;;;;;17.51;66.51;100980.56;5146437;27;20040;-68
2023/08/04 00:24:13;;;;;;;12.27;3.40;;;;;;;17.51;66.45;100988.72;5142511;27;20051;-66
2023/08/04 00:26:40;;;;;;;8.57;3.80;;;;;;;17.51;66.48;100996.06;5141768;27;20055;-68
2023/08/04 00:29:08;;;;;;;10.02;3.20;;;;;;;17.49;66.47;100984.63;5143912;27;20055;-69
2023/08/04 00:31:36;;;;;;;7.05;3.30;;;;;;;17.50;66.46;100989.81;5141848;27;20068;-69
2023/08/04 00:34:05;;;;;;;10.65;3.35;;;;;;;17.48;66.51;100989.25;5142631;27;20043;-68
2023/08/04 00:36:33;;;;;;;7.32;2.85;;;;;;;17.47;66.48;100990.34;5141317;27;20059;-67
2023/08/04 00:39:01;;;;;;;6.97;3.30;;;;;;;17.46;66.41;100985.97;5140644;27;20040;-68
2023/08/04 00:41:29;;;;;;;10.93;3.78;;;;;;;17.46;66.55;100999.56;5143473;27;20066;-69
2023/08/04 00:43:57;;;;;;;7.55;3.55;;;;;;;17.46;66.30;101004.19;5137811;27;20055;-68
2023/08/04 00:46:26;;;;;;;7.20;3.22;;;;;;;17.45;66.27;100994.41;5140017;27;20070;-67
2023/08/04 00:48:54;;;;;;;7.97;3.40;;;;;;;17.45;66.43;100997.94;5143306;27;20039;-67
2023/08/04 00:51:23;;;;;;;8.73;3.38;;;;;;;17.45;66.36;100999.81;5141403;27;20047;-67
2023/08/04 00:53:51;;;;;;;6.57;3.35;;;;;;;17.43;66.44;101000.09;5141757;27;20100;-67
2023/08/04 00:56:19;;;;;;;8.00;3.00;;;;;;;17.41;66.43;101002.25;5141169;27;20412;-67
2023/08/04 00:58:47;;;;;;;7.07;3.20;;;;;;;17.41;66.40;100999.53;5137078;27;20039;-68
2023/08/04 01:01:15;;;;;;;13.73;3.95;;;;;;;17.41;66.49;100999.53;5142382;27;20247;-67
2023/08/04 01:03:43;;;;;;;10.10;3.88;;;;;;;17.40;66.38;100997.91;5140720;27;20047;-67
2023/08/04 01:06:16;;;;;;;8.45;3.20;;;;;;;17.38;66.50;101002.78;5137800;27;20115;-67
2023/08/04 01:09:07;;;;;;;7.22;2.90;;;;;;;17.39;66.37;101014.47;5142754;27;20104;-68
2023/08/04 01:11:43;;;;;;;5.85;3.00;;;;;;;17.37;66.46;101013.91;5140440;27;20039;-67
2023/08/04 01:14:12;;;;;;;9.95;3.30;;;;;;;17.37;66.53;101014.72;5140663;27;20147;-67
2023/08/04 01:16:40;;;;;;;7.65;3.60;;;;;;;17.36;66.40;101015.00;5139684;27;20047;-67
2023/08/04 01:19:08;;;;;;;10.48;3.85;;;;;;;17.35;66.58;101014.16;5140798;27;20404;-67
2023/08/04 01:21:43;;;;;;;8.65;3.95;;;;;;;17.35;66.45;101018.78;5139954;27;20064;-67
2023/08/04 01:24:12;;;;;;;13.80;3.15;;;;;;;17.34;66.34;101020.69;5140378;27;20056;-67
2023/08/04 01:26:45;;;;;;;9.75;3.47;;;;;;;17.33;66.47;101019.09;5137733;27;20043;-67
2023/08/04 01:29:15;;;;;;;8.25;3.33;;;;;;;17.33;66.47;101020.97;5139756;27;20080;-68
2023/08/04 01:31:44;;;;;;;15.05;3.13;;;;;;;17.33;66.47;101020.97;5141886;27;20050;-67
2023/08/04 01:34:12;;;;;;;6.07;3.03;;;;;;;17.32;66.44;101022.06;5140920;27;20051;-69
2023/08/04 01:36:40;;;;;;;5.85;3.10;;;;;;;17.32;66.42;101022.06;5141853;27;20046;-67
2023/08/04 01:39:09;;;;;;;9.85;3.45;;;;;;;17.30;66.53;101026.94;5141800;27;20043;-67
2023/08/04 01:41:37;;;;;;;7.85;3.65;;;;;;;17.30;66.45;101029.66;5141779;27;20039;-67
2023/08/04 01:44:05;;;;;;;8.20;3.33;;;;;;;17.30;66.49;101035.09;5140959;27;20035;-66
2023/08/04 01:46:33;;;;;;;8.35;2.97;;;;;;;17.28;66.60;101029.91;5140306;27;20081;-69
2023/08/04 01:49:01;;;;;;;10.50;3.70;;;;;;;17.27;66.60;101033.72;5140715;27;20055;-69
2023/08/04 01:51:28;;;;;;;7.70;4.00;;;;;;;17.27;66.60;101036.44;5140372;27;20043;-68
2023/08/04 01:53:56;;;;;;;8.65;3.60;;;;;;;17.27;66.57;101039.16;5143186;27;20075;-69
2023/08/04 01:56:25;;;;;;;8.32;2.88;;;;;;;17.26;66.64;101040.22;5142185;27;20047;-69
2023/08/04 01:58:53;;;;;;;14.80;3.45;;;;;;;17.27;66.58;101031.00;5144162;27;20085;-68
2023/08/04 02:01:21;;;;;;;11.88;3.85;;;;;;;17.26;66.60;101034.78;5143352;27;20047;-68
2023/08/04 02:03:49;;;;;;;10.55;3.03;;;;;;;17.24;66.63;101034.22;5145046;27;20104;-68
2023/08/04 02:06:16;;;;;;;9.10;3.20;;;;;;;17.24;66.79;101031.53;5140815;27;20043;-68
2023/08/04 02:08:44;;;;;;;6.35;3.05;;;;;;;17.24;66.68;101035.06;5144867;27;20043;-68
2023/08/04 02:11:12;;;;;;;8.02;3.38;;;;;;;17.24;66.54;101032.34;5144266;27;20078;-67
2023/08/04 02:13:41;;;;;;;9.98;3.65;;;;;;;17.24;66.81;101036.94;5143270;27;20039;-68
2023/08/04 02:16:09;;;;;;;9.02;3.20;;;;;;;17.23;66.83;101052.44;5143751;27;20047;-67
2023/08/04 02:18:37;;;;;;;7.53;3.22;;;;;;;17.23;67.04;101047.00;5143965;27;20377;-67
2023/08/04 02:21:04;;;;;;;5.57;3.28;;;;;;;17.23;66.73;101044.28;5144579;27;20047;-67
2023/08/04 02:23:32;;;;;;;6.40;3.50;;;;;;;17.22;66.73;101058.94;5141711;27;20043;-69
2023/08/04 02:26:00;;;;;;;8.50;3.75;;;;;;;17.21;66.79;101053.78;5135987;27;20958;-67
2023/08/04 02:28:28;;;;;;;8.77;2.92;;;;;;;17.20;66.68;101044.81;5138392;27;20065;-68
2023/08/04 02:30:59;;;;;;;7.75;3.53;;;;;;;17.19;66.69;101045.88;5139035;27;20057;-68
2023/08/04 02:33:29;;;;;;;7.28;3.08;;;;;;;17.18;66.77;101044.25;5137236;27;20407;-68
2023/08/04 02:36:00;;;;;;;5.88;3.15;;;;;;;17.18;66.75;101044.25;5138369;27;20039;-67
2023/08/04 02:38:29;;;;;;;8.77;3.08;;;;;;;17.17;66.89;101050.75;5140564;27;20536;-68
2023/08/04 02:41:02;;;;;;;7.40;3.50;;;;;;;17.16;66.73;101040.16;5142417;27;20163;-68
2023/08/04 02:43:30;;;;;;;8.10;3.05;;;;;;;17.15;66.81;101050.19;5141527;27;20055;-68
2023/08/04 02:45:59;;;;;;;10.00;3.47;;;;;;;17.14;66.76;101054.00;5137451;27;20124;-68
2023/08/04 02:48:27;;;;;;;5.93;3.20;;;;;;;17.14;66.74;101056.72;5138808;27;20092;-68
2023/08/04 02:51:01;;;;;;;9.13;3.20;;;;;;;17.14;66.59;101055.88;5139832;27;20107;-67
2023/08/04 02:53:29;;;;;;;9.43;3.40;;;;;;;17.14;66.68;101053.19;5137040;27;20051;-69
2023/08/04 02:55:56;;;;;;;7.57;3.17;;;;;;;17.12;66.62;101048.00;5134417;27;20039;-68
2023/08/04 02:58:25;;;;;;;11.25;3.58;;;;;;;17.13;66.52;101056.97;5138763;27;20050;-68
2023/08/04 03:00:54;;;;;;;9.48;3.33;;;;;;;17.12;66.62;101050.72;5135449;27;20039;-68
2023/08/04 03:03:23;;;;;;;8.43;3.17;;;;;;;17.12;66.50;101060.75;5139941;27;20054;-68
2023/08/04 03:05:51;;;;;;;12.20;3.25;;;;;;;17.11;66.64;101062.66;5136344;27;20116;-68
2023/08/04 03:08:18;;;;;;;8.05;3.22;;;;;;;17.08;66.58;101056.94;5135986;27;20088;-68
2023/08/04 03:10:46;;;;;;;6.47;2.90;;;;;;;17.08;66.54;101067.78;5141864;27;20042;-68
2023/08/04 03:13:14;;;;;;;13.25;3.33;;;;;;;17.07;66.75;101063.44;5139620;27;20043;-68
2023/08/04 03:15:42;;;;;;;6.55;3.80;;;;;;;17.07;66.58;101058.81;5137909;27;20050;-66
2023/08/04 03:18:09;;;;;;;5.97;3.35;;;;;;;17.07;66.82;101061.53;5139717;27;20047;-67
2023/08/04 03:20:40;;;;;;;8.18;3.08;;;;;;;17.06;66.62;101061.81;5141726;27;20039;-68
2023/08/04 03:23:08;;;;;;;8.95;3.20;;;;;;;17.05;66.72;101066.41;5139203;27;20039;-68
2023/08/04 03:25:35;;;;;;;9.35;3.20;;;;;;;17.05;66.62;101071.03;5134344;28;20538;-66
2023/08/04 03:28:03;;;;;;;5.70;3.17;;;;;;;17.04;66.67;101072.94;5141306;27;20054;-68
2023/08/04 03:30:32;;;;;;;8.60;3.35;;;;;;;17.04;66.96;101072.94;5145215;27;20050;-67
2023/08/04 03:32:59;;;;;;;6.72;4.07;;;;;;;17.03;66.74;101067.75;5146438;27;20047;-68
2023/08/04 03:35:27;;;;;;;7.60;3.00;;;;;;;17.04;66.85;101074.81;5148045;27;20103;-67
2023/08/04 03:37:56;;;;;;;7.90;3.20;;;;;;;17.03;66.84;101071.28;5147884;27;20099;-67
2023/08/04 03:40:24;;;;;;;12.25;3.22;;;;;;;17.02;66.83;101076.97;5147883;27;20047;-66
2023/08/04 03:42:52;;;;;;;9.60;3.38;;;;;;;17.02;66.92;101076.97;5142852;27;20104;-68
2023/08/04 03:45:20;;;;;;;10.15;3.60;;;;;;;17.00;66.95;101069.09;5144387;27;20047;-67
2023/08/04 03:47:48;;;;;;;9.32;3.47;;;;;;;17.01;66.91;101069.91;5147265;27;20048;-68
2023/08/04 03:50:16;;;;;;;8.75;3.60;;;;;;;17.00;66.89;101082.66;5146584;27;20047;-67
2023/08/04 03:52:43;;;;;;;7.70;2.90;;;;;;;17.00;66.94;101081.84;5146466;27;20096;-68
2023/08/04 03:55:12;;;;;;;8.15;3.40;;;;;;;16.99;66.96;101081.03;5146300;27;20074;-68
2023/08/04 03:57:40;;;;;;;8.50;3.30;;;;;;;16.98;66.87;101079.38;5144562;27;20073;-68
2023/08/04 04:00:09;;;;;;;9.68;2.88;;;;;;;16.96;67.05;101078.00;5145866;27;20085;-68
2023/08/04 04:02:37;;;;;;;5.28;2.88;;;;;;;16.97;67.02;101071.50;5141681;27;20065;-68
2023/08/04 04:05:05;;;;;;;6.70;2.70;;;;;;;16.97;67.03;101085.91;5141343;27;20046;-66
2023/08/04 04:07:33;;;;;;;9.32;3.40;;;;;;;16.97;67.08;101093.22;5142413;27;20142;-66
2023/08/04 04:10:01;;;;;;;8.82;3.38;;;;;;;16.96;67.19;101084.25;5139072;27;20146;-66
2023/08/04 04:12:30;;;;;;;6.78;3.10;;;;;;;16.96;67.15;101088.88;5137714;27;20077;-66
2023/08/04 04:14:57;;;;;;;8.45;3.33;;;;;;;16.95;67.23;101081.81;5140559;27;20039;-68
2023/08/04 04:17:25;;;;;;;7.20;3.10;;;;;;;16.95;67.17;101085.34;4787038;27;10000075;-67
2023/08/04 04:19:53;;;;;;;11.50;4.57;;;;;;;16.95;67.06;101089.94;5138791;27;20047;-67
2023/08/04 04:22:21;;;;;;;8.93;3.88;;;;;;;16.95;66.98;101089.94;5137078;27;20139;-68
2023/08/04 04:24:49;;;;;;;6.32;3.40;;;;;;;16.93;67.03;101092.91;5140630;27;20064;-68
2023/08/04 04:27:16;;;;;;;7.05;3.65;;;;;;;16.93;67.01;101109.22;5140683;27;20043;-69
2023/08/04 04:29:46;;;;;;;10.48;3.90;;;;;;;16.91;67.02;101101.31;5139464;27;20051;-67
2023/08/04 04:32:13;;;;;;;5.93;2.92;;;;;;;16.91;67.11;101104.03;5140499;27;20054;-67
2023/08/04 04:34:41;;;;;;;5.35;3.03;;;;;;;16.91;67.11;101106.75;5140881;27;20039;-67
2023/08/04 04:37:09;;;;;;;6.85;3.55;;;;;;;16.91;67.14;101108.66;5140071;27;20488;-67
2023/08/04 04:39:37;;;;;;;10.32;3.53;;;;;;;16.90;66.97;101107.00;5145949;27;20044;-67
2023/08/04 04:42:05;;;;;;;9.02;3.55;;;;;;;16.89;67.09;101108.91;5141580;27;20040;-69
2023/08/04 04:44:33;;;;;;;7.85;3.58;;;;;;;16.88;67.03;101111.88;5142755;27;20046;-67
2023/08/04 04:47:04;;;;;;;7.32;3.25;;;;;;;16.87;67.20;101111.06;5144423;27;20115;-68
2023/08/04 04:49:32;;;;;;;7.82;3.70;;;;;;;16.87;67.02;101108.34;5143392;27;20073;-68
2023/08/04 04:52:00;;;;;;;9.13;3.55;;;;;;;16.86;67.19;101108.59;5142260;27;20088;-67
2023/08/04 04:54:28;;;;;;;6.60;3.88;;;;;;;16.85;67.08;101121.34;5137000;27;20241;-66
2023/08/04 04:56:55;;;;;;;7.93;3.78;;;;;;;16.86;66.92;101122.16;5137132;27;20047;-68
2023/08/04 04:59:23;;;;;;;7.95;3.10;;;;;;;16.84;67.13;101124.31;5142328;27;20557;-68
2023/08/04 05:01:51;;;;;;;9.15;3.08;;;;;;;16.85;67.22;101125.97;5141346;27;20104;-68
2023/08/04 05:04:20;;;;;;;8.57;3.25;;;;;;;16.85;67.11;101128.69;5142171;27;20035;-67
2023/08/04 05:06:48;;;;;;;10.63;3.38;;;;;;;16.83;67.14;101131.66;5139495;27;20039;-68
2023/08/04 05:09:16;;;;;;;10.65;3.72;;;;;;;16.83;67.06;101128.13;5140803;27;20319;-68
2023/08/04 05:11:44;;;;;;;6.90;3.33;;;;;;;16.83;67.14;101125.41;5141614;27;20092;-68
2023/08/04 05:14:12;;;;;;;7.47;3.45;;;;;;;16.82;67.21;101131.91;5137194;27;20058;-69
2023/08/04 05:16:40;;;;;;;7.22;3.28;;;;;;;16.81;67.22;101139.22;5134864;27;20195;-68
2023/08/04 05:19:08;;;;;;;12.48;4.10;;;;;;;16.81;67.32;101141.13;5138359;27;20098;-68
2023/08/04 05:21:37;;;;;;;7.70;3.70;;;;;;;16.81;67.26;101141.94;5136336;27;20054;-68
2023/08/04 05:24:05;;;;;;;8.20;3.33;;;;;;;16.80;67.17;101145.72;5138335;27;20051;-68
2023/08/04 05:26:33;;;;;;;7.20;3.30;;;;;;;16.79;67.30;101152.25;5133769;27;20102;-69
2023/08/04 05:29:00;;;;;;;7.95;3.63;;;;;;;16.80;67.22;101150.34;5138640;27;20047;-70
2023/08/04 05:31:28;;;;;;;7.53;3.45;;;;;;;16.81;67.28;101151.97;5140502;27;20067;-68
2023/08/04 05:33:56;;;;;;;9.70;3.78;;;;;;;16.80;67.42;101148.44;5142996;27;20066;-68
2023/08/04 05:36:24;;;;;;;6.95;3.63;;;;;;;16.82;67.13;101153.63;5143431;27;20055;-69
2023/08/04 05:38:53;;;;;;;9.80;3.47;;;;;;;16.82;67.38;101159.06;5144702;27;20042;-67
2023/08/04 05:41:21;;;;;;;6.20;3.08;;;;;;;16.83;67.32;101157.97;5144296;27;20081;-66
2023/08/04 05:43:49;;;;;;;6.25;3.08;;;;;;;16.81;67.54;101158.22;5143643;27;20050;-65
2023/08/04 05:46:17;;;;;;;5.38;2.80;;;;;;;16.80;67.46;101158.50;5146935;27;20055;-66
2023/08/04 05:48:45;;;;;;;12.13;3.65;;;;;;;16.78;67.70;101158.75;5141536;27;20055;-66
2023/08/04 05:51:12;;;;;;;6.60;3.20;;;;;;;16.79;67.94;101163.09;5141869;27;20051;-67
2023/08/04 05:53:41;;;;;;;5.60;3.05;;;;;;;16.79;68.01;101167.72;5137083;27;20081;-65
2023/08/04 05:56:10;;;;;;;9.27;3.45;;;;;;;16.78;68.15;101166.06;5141710;27;20150;-68
2023/08/04 05:58:38;;;;;;;6.50;2.80;;;;;;;16.78;68.02;101166.88;5136553;27;21511;-65
2023/08/04 06:01:06;;;;;;;8.00;3.53;;;;;;;16.78;68.14;101171.50;5138240;27;20104;-68
2023/08/04 06:03:34;;;;;;;8.13;3.78;;;;;;;16.77;68.33;101175.28;5138339;27;20560;-68
2023/08/04 06:06:03;;;;;;;7.97;4.03;;;;;;;16.78;68.45;101171.50;5135422;27;20035;-64
2023/08/04 06:08:31;;;;;;;10.35;3.83;;;;;;;16.76;68.57;101174.47;5139867;27;20042;-66
2023/08/04 06:10:59;;;;;;;7.90;3.50;;;;;;;16.78;68.56;101172.31;5138074;27;20055;-66
2023/08/04 06:13:28;;;;;;;9.55;3.67;;;;;;;16.81;68.73;101176.41;5137674;27;20194;-66
2023/08/04 06:15:56;;;;;;;6.97;3.60;;;;;;;16.81;68.62;101187.28;5138089;27;20062;-66
2023/08/04 06:18:24;;;;;;;10.10;4.20;;;;;;;16.82;68.79;101186.19;5140359;27;20054;-66
2023/08/04 06:20:53;;;;;;;9.82;3.75;;;;;;;16.83;68.60;101190.56;5141391;27;20046;-65
2023/08/04 06:23:20;;;;;;;8.82;3.95;;;;;;;16.83;68.67;101191.38;5140828;27;20091;-65
2023/08/04 06:25:48;;;;;;;7.15;3.63;;;;;;;16.85;68.69;101193.84;5140425;27;20035;-64
2023/08/04 06:28:16;;;;;;;10.95;3.42;;;;;;;16.85;68.69;101200.09;5136874;27;20046;-64
2023/08/04 06:30:45;;;;;;;6.95;4.10;;;;;;;16.85;68.76;101205.50;5140736;27;20055;-66
2023/08/04 06:33:13;;;;;;;10.45;3.63;;;;;;;16.84;68.99;101206.59;5137269;27;20043;-66
2023/08/04 06:35:43;;;;;;;8.73;3.13;;;;;;;16.85;68.85;101204.69;5139078;27;20115;-67
2023/08/04 06:38:11;;;;;;;7.82;3.53;;;;;;;16.84;69.01;101209.31;4417671;27;10000847;-66
2023/08/04 06:40:40;;;;;;;9.43;3.72;;;;;;;16.86;68.77;101211.75;5121228;27;20055;-66
2023/08/04 06:43:08;;;;;;;6.85;3.45;;;;;;;16.86;68.89;101215.28;5120498;27;20088;-68
2023/08/04 06:45:36;;;;;;;8.65;2.95;;;;;;;16.89;68.93;101222.09;5118011;27;20135;-67
2023/08/04 06:48:05;;;;;;;6.95;3.72;;;;;;;16.90;68.92;101219.16;5109579;27;20048;-67
2023/08/04 06:50:33;;;;;;;7.43;3.10;;;;;;;16.90;68.91;101219.16;5105702;28;20079;-68
2023/08/04 06:53:01;;;;;;;5.85;3.20;;;;;;;16.94;68.93;101218.63;5118938;28;20039;-67
2023/08/04 06:55:29;;;;;;;6.57;3.40;;;;;;;16.95;68.77;101226.53;5116715;28;20085;-69
2023/08/04 06:57:56;;;;;;;7.57;3.55;;;;;;;16.95;68.82;101231.13;5101810;28;20085;-66
2023/08/04 07:00:24;;;;;;;9.02;4.10;;;;;;;16.96;68.99;101235.50;5102953;28;20051;-69
2023/08/04 07:02:52;;;;;;;5.65;3.15;;;;;;;16.98;69.05;101228.72;5117919;28;20055;-66
2023/08/04 07:05:21;;;;;;;7.35;2.97;;;;;;;16.99;68.96;101233.09;5117620;27;20290;-63
2023/08/04 07:07:51;;;;;;;10.57;4.55;;;;;;;16.97;71.50;101231.69;5116762;27;20491;-66
2023/08/04 07:10:19;;;;;;;6.90;3.70;;;;;;;16.94;71.28;101237.63;5133497;27;20119;-65
2023/08/04 07:12:46;;;;;;;11.77;4.32;;;;;;;16.96;71.06;101235.50;5135848;27;20055;-66
2023/08/04 07:15:14;;;;;;;10.20;4.28;;;;;;;16.98;70.95;101239.59;5142000;27;20047;-66
2023/08/04 07:17:42;;;;;;;9.60;3.15;;;;;;;16.99;70.76;101238.50;5143101;27;20408;-65
2023/08/04 07:20:11;;;;;;;9.30;3.78;;;;;;;17.02;70.61;101239.91;5141697;27;20043;-65
2023/08/04 07:22:40;;;;;;;11.50;3.35;;;;;;;17.05;70.63;101242.09;5144565;27;20073;-65
2023/08/04 07:25:08;;;;;;;6.45;2.78;;;;;;;17.09;70.58;101243.25;5136562;27;20073;-65
2023/08/04 07:27:36;;;;;;;6.80;2.92;;;;;;;17.10;70.51;101237.56;5136353;28;20329;-65
2023/08/04 07:30:04;;;;;;;8.57;3.08;;;;;;;17.13;70.36;101231.59;5136367;27;20043;-65
2023/08/04 07:32:32;;;;;;;7.90;3.40;;;;;;;17.17;70.39;101240.06;5140291;28;20524;-66
2023/08/04 07:35:00;;;;;;;7.18;3.10;;;;;;;17.19;70.37;101236.00;5141820;27;20468;-65
2023/08/04 07:37:29;;;;;;;10.18;3.30;;;;;;;17.20;70.38;101244.97;5143852;27;20035;-66
2023/08/04 07:39:58;;;;;;;6.85;2.90;;;;;;;17.22;70.41;101250.97;5142554;27;20541;-65
2023/08/04 07:42:26;;;;;;;9.80;2.90;;;;;;;17.22;70.41;101248.25;5144020;27;20039;-65
2023/08/04 07:44:54;;;;;;;4.18;2.63;;;;;;;17.24;70.31;101254.25;5134779;28;20112;-64
2023/08/04 07:47:22;;;;;;;9.70;2.78;;;;;;;17.24;70.26;101255.09;5142601;28;20047;-64
2023/08/04 07:49:50;;;;;;;7.05;3.10;;;;;;;17.24;70.40;101246.13;5143633;27;20107;-65
2023/08/04 07:52:17;;;;;;;7.22;3.05;;;;;;;17.24;70.13;101252.38;5142026;27;20055;-66
2023/08/04 07:54:45;;;;;;;6.57;2.47;;;;;;;17.24;70.22;101254.25;5138616;28;20047;-65
2023/08/04 07:57:14;;;;;;;4.30;2.50;;;;;;;17.26;70.15;101254.00;5142901;27;20043;-65
2023/08/04 07:59:42;;;;;;;5.38;2.65;;;;;;;17.26;70.19;101273.03;5141802;28;20499;-64
2023/08/04 08:02:10;;;;;;;10.20;2.97;;;;;;;17.27;70.07;101261.06;5143272;27;20100;-65
2023/08/04 08:04:38;;;;;;;9.68;3.33;;;;;;;17.26;70.11;101260.25;5143253;27;20051;-65
2023/08/04 08:07:05;;;;;;;6.95;3.03;;;;;;;17.26;70.19;101262.97;5136744;28;20070;-65
2023/08/04 08:09:33;;;;;;;9.23;2.78;;;;;;;17.26;70.12;101260.25;5143279;28;20498;-65
2023/08/04 08:12:01;;;;;;;8.55;2.60;;;;;;;17.26;70.19;101268.41;5143532;27;20522;-66
2023/08/04 08:14:30;;;;;;;8.05;3.22;;;;;;;17.28;70.09;101265.44;5145138;27;20050;-65
2023/08/04 08:16:58;;;;;;;4.00;2.47;;;;;;;17.27;70.14;101267.34;5142074;27;20043;-65
2023/08/04 08:19:27;;;;;;;6.93;2.63;;;;;;;17.27;70.20;101264.63;5142774;27;20053;-65
2023/08/04 08:21:55;;;;;;;8.30;3.00;;;;;;;17.28;70.13;101270.88;5145851;27;20103;-65
2023/08/04 08:24:23;;;;;;;6.65;3.03;;;;;;;17.28;69.92;101270.88;5143572;27;21384;-65
2023/08/04 08:26:51;;;;;;;6.57;2.78;;;;;;;17.29;70.10;101277.94;5140204;27;20039;-65
2023/08/04 08:29:18;;;;;;;7.03;2.80;;;;;;;17.29;69.87;101280.66;5145555;27;20358;-65
2023/08/04 08:31:50;;;;;;;5.85;2.33;;;;;;;17.29;69.84;101284.19;5144906;27;20043;-65
2023/08/04 08:34:18;;;;;;;6.10;2.53;;;;;;;17.29;69.74;101288.81;5141709;27;20047;-64
2023/08/04 08:36:46;;;;;;;5.35;2.30;;;;;;;17.29;69.63;101288.81;5142661;27;20418;-63
2023/08/04 08:39:14;;;;;;;7.15;2.88;;;;;;;17.28;69.59;101285.28;5146601;27;20047;-59
2023/08/04 08:41:41;;;;;;;5.28;2.42;;;;;;;17.29;69.53;101286.91;5141781;27;20080;-65
2023/08/04 08:44:10;;;;;;;6.60;2.60;;;;;;;17.32;69.44;101293.72;5141728;27;20049;-66
2023/08/04 08:46:39;;;;;;;5.65;2.20;;;;;;;17.32;69.46;101297.28;5142444;27;20102;-66
2023/08/04 08:49:10;;;;;;;4.70;2.22;;;;;;;17.32;69.47;101294.56;5139764;27;20137;-66
2023/08/04 08:51:43;;;;;;;7.45;2.45;;;;;;;17.34;69.50;101302.41;5141881;27;20063;-67
2023/08/04 08:54:11;;;;;;;5.63;2.63;;;;;;;17.35;69.38;101301.34;5140058;27;20047;-69
2023/08/04 08:56:38;;;;;;;5.35;2.33;;;;;;;17.36;69.29;101297.53;5142667;27;20043;-68
2023/08/04 08:59:07;;;;;;;7.75;2.13;;;;;;;17.35;69.32;101296.72;5144301;27;20100;-68
2023/08/04 09:01:35;;;;;;;7.50;2.35;;;;;;;17.38;69.05;101308.97;5143539;27;20051;-67
2023/08/04 09:04:05;;;;;;;4.43;2.08;;;;;;;17.37;68.74;101297.28;5139021;27;20106;-69
2023/08/04 09:06:34;;;;;;;6.50;2.33;;;;;;;17.39;68.79;101306.00;5141469;27;20080;-68
2023/08/04 09:09:03;;;;;;;4.82;1.88;;;;;;;17.39;68.74;101302.47;5144094;27;20058;-68
2023/08/04 09:11:31;;;;;;;4.78;2.28;;;;;;;17.40;68.71;101304.94;5145863;27;20047;-68
2023/08/04 09:14:01;;;;;;;6.65;2.10;;;;;;;17.43;68.65;101307.13;5142245;27;20043;-69
2023/08/04 09:16:33;;;;;;;5.75;2.25;;;;;;;17.44;68.72;101302.53;5144322;27;20051;-67
2023/08/04 09:19:04;;;;;;;3.75;1.63;;;;;;;17.44;68.73;101308.78;5146298;27;20043;-67
2023/08/04 09:21:34;;;;;;;4.53;2.22;;;;;;;17.46;68.77;101300.38;5142715;27;20043;-67
2023/08/04 09:24:03;;;;;;;3.97;1.95;;;;;;;17.44;68.68;101314.22;5143555;27;20074;-68
2023/08/04 09:26:42;;;;;;;4.43;2.13;;;;;;;17.47;68.62;101310.97;5140164;27;20043;-66
2023/08/04 09:29:10;;;;;;;5.45;2.10;;;;;;;17.48;68.61;101309.09;5145500;27;20058;-67
2023/08/04 09:31:39;;;;;;;4.68;2.40;;;;;;;17.51;68.48;101308.56;5145705;27;20073;-68
2023/08/04 09:34:09;;;;;;;7.32;2.30;;;;;;;17.52;68.52;101311.03;5143302;27;20051;-67
2023/08/04 09:36:42;;;;;;;3.42;2.13;;;;;;;17.54;68.64;101310.78;5146262;27;20043;-67
2023/08/04 09:39:10;;;;;;;5.63;3.05;;;;;;;17.57;68.73;101311.09;5146478;27;20064;-67
2023/08/04 09:41:42;;;;;;;6.05;2.00;;;;;;;17.62;68.83;101313.03;5144616;27;20411;-67
2023/08/04 09:44:10;;;;;;;3.88;2.38;;;;;;;17.64;68.95;101323.66;5143831;27;20047;-69
2023/08/04 09:46:40;;;;;;;6.13;2.65;;;;;;;17.66;68.79;101321.53;5133089;27;20051;-68
2023/08/04 09:49:08;;;;;;;6.22;2.30;;;;;;;17.68;68.64;101324.81;5142137;27;20066;-67
2023/08/04 09:51:42;;;;;;;6.25;2.33;;;;;;;17.69;68.70;101315.56;5143272;27;20081;-69
2023/08/04 09:54:10;;;;;;;9.68;2.40;;;;;;;17.71;68.75;101327.00;5141970;27;20051;-69
2023/08/04 09:56:38;;;;;;;3.22;1.80;;;;;;;17.71;68.87;101327.84;5141236;27;20051;-68
2023/08/04 09:59:06;;;;;;;4.40;1.83;;;;;;;17.71;68.55;101332.44;5144694;27;20039;-68
2023/08/04 10:01:34;;;;;;;2.47;1.80;;;;;;;17.72;68.66;101331.38;5143124;27;20051;-68
2023/08/04 10:04:03;;;;;;;4.80;1.50;;;;;;;17.73;68.93;101328.41;5141778;27;20043;-67
2023/08/04 10:06:33;;;;;;;2.70;1.40;;;;;;;17.72;68.99;101325.94;5140273;27;20049;-66
2023/08/04 10:09:03;;;;;;;3.35;1.65;;;;;;;17.73;68.63;101320.25;5138952;27;20043;-65
2023/08/04 10:11:31;;;;;;;3.97;1.70;;;;;;;17.73;68.79;101317.53;5141752;27;20051;-65
2023/08/04 10:13:59;;;;;;;6.65;1.98;;;;;;;17.75;68.91;101325.41;5134891;27;20092;-64
2023/08/04 10:16:31;;;;;;;3.92;1.92;;;;;;;17.78;68.94;101322.19;5137300;27;20055;-65
2023/08/04 10:19:02;;;;;;;4.20;2.15;;;;;;;17.81;68.88;101318.94;5143123;27;20043;-65
2023/08/04 10:21:34;;;;;;;3.00;1.40;;;;;;;17.83;69.02;101320.34;5142060;27;20082;-64
2023/08/04 10:24:08;;;;;;;6.45;1.60;;;;;;;17.85;68.51;101304.56;5142393;27;20079;-66
2023/08/04 10:26:46;;;;;;;4.55;2.05;;;;;;;17.87;68.69;101320.63;5142282;27;20263;-63
2023/08/04 10:29:14;;;;;;;2.33;1.52;;;;;;;17.88;68.48;101320.38;5141200;27;20077;-66
2023/08/04 10:31:47;;;;;;;5.43;2.03;;;;;;;17.89;68.20;101316.59;5140855;27;20043;-65
2023/08/04 10:34:27;;;;;;;4.82;2.10;;;;;;;17.93;67.79;101329.66;5136370;27;20050;-66
2023/08/04 10:37:09;;;;;;;4.35;1.65;;;;;;;17.91;67.07;101323.66;5140311;27;20058;-65
2023/08/04 10:39:40;;;;;;;6.13;1.52;;;;;;;17.92;66.77;101333.47;5137728;27;20127;-64
2023/08/04 10:42:15;;;;;;;3.80;1.27;;;;;;;17.91;66.48;101337.25;5139129;27;20054;-64
2023/08/04 10:44:54;;;;;;;1.50;1.20;;;;;;;17.89;66.18;101338.34;5138999;27;20050;-63
2023/08/04 10:47:41;;;;;;;3.13;1.60;;;;;;;17.89;66.27;101337.50;5137353;27;20043;-63
2023/08/04 10:50:26;;;;;;;3.85;1.50;;;;;;;17.89;66.40;101332.91;5139929;27;20115;-64
2023/08/04 10:52:54;;;;;;;2.17;1.10;;;;;;;17.92;66.75;101333.47;5139529;27;20043;-65
2023/08/04 10:55:23;;;;;;;5.18;1.70;;;;;;;17.91;66.10;101343.50;5141035;27;20090;-63
2023/08/04 10:57:51;;;;;;;4.45;1.42;;;;;;;17.92;65.88;101339.72;5140792;27;20035;-64
2023/08/04 11:00:18;;;;;;;3.65;1.63;;;;;;;17.93;65.38;101343.25;5140713;27;20083;-65
2023/08/04 11:02:46;;;;;;;2.03;1.23;;;;;;;17.92;65.42;101337.00;5143655;27;20043;-65
2023/08/04 11:05:14;;;;;;;3.53;1.35;;;;;;;17.94;65.27;101340.28;4786310;27;10000393;-64
2023/08/04 11:07:46;;;;;;;3.50;1.63;;;;;;;17.96;65.66;101337.31;5139591;27;20039;-65
2023/08/04 11:10:14;;;;;;;5.45;1.80;;;;;;;18.00;66.28;101341.97;5145946;27;20051;-65
2023/08/04 11:12:43;;;;;;;3.97;1.70;;;;;;;18.02;66.33;101339.81;5142488;27;20114;-64
2023/08/04 11:15:12;;;;;;;4.15;1.40;;;;;;;18.04;66.24;101342.25;5139792;27;20107;-64
2023/08/04 11:17:41;;;;;;;3.28;1.35;;;;;;;18.05;65.93;101352.88;5146554;27;20047;-64
2023/08/04 11:20:12;;;;;;;7.13;1.40;;;;;;;18.02;66.04;101338.97;5139584;27;20126;-65
2023/08/04 11:23:00;;;;;;;4.75;1.50;;;;;;;18.08;65.91;101351.53;5136793;27;20061;-64
2023/08/04 11:25:28;;;;;;;7.47;1.50;;;;;;;18.08;65.87;101348.81;5140879;27;20100;-65
2023/08/04 11:27:57;;;;;;;4.90;2.03;;;;;;;18.09;65.76;101355.91;5145449;27;20035;-64
2023/08/04 11:30:26;;;;;;;4.60;1.83;;;;;;;18.10;66.01;101352.94;5138835;28;20095;-65
2023/08/04 11:32:54;;;;;;;5.57;1.52;;;;;;;18.15;66.46;101363.84;5141730;27;20202;-65